Time;durP1;ratioP1;P1;durP2;ratioP2;P2;SDS_P1;SDS_P2;PMS_P1;PMS_P2;Temp;Humidity;BMP_temperature;BMP_pressure;BME280_temperature;BME280_humidity;BME280_pressure;Samples;Min_cycle;Max_cycle;Signal;HPM_P1;HPM_P2
2022/07/13 00:05:24;;;;;;;4.85;1.60;;;19.90;99.90;;;;;;12474561;28;20133;-83
2022/07/13 00:11:25;;;;;;;2.63;1.60;;;19.70;99.90;;;;;;12443033;28;20681;-82
2022/07/13 00:17:27;;;;;;;3.83;1.30;;;19.80;99.90;;;;;;12450483;28;20109;-82
2022/07/13 00:23:29;;;;;;;5.10;1.67;;;19.90;99.90;;;;;;12445471;28;20096;-82
2022/07/13 00:29:31;;;;;;;6.75;1.35;;;19.70;99.90;;;;;;12476930;28;20045;-82
2022/07/13 00:35:33;;;;;;;1.20;0.90;;;19.60;99.90;;;;;;12466797;28;20061;-83
2022/07/13 00:41:35;;;;;;;3.45;1.30;;;19.40;99.90;;;;;;12441861;28;20128;-83
2022/07/13 00:47:38;;;;;;;2.42;1.40;;;19.40;99.90;;;;;;12445518;28;20118;-82
2022/07/13 00:53:39;;;;;;;3.50;1.60;;;19.20;99.90;;;;;;12437825;28;20107;-83
2022/07/13 00:59:41;;;;;;;1.83;1.10;;;19.20;99.90;;;;;;12459543;28;20716;-82
2022/07/13 01:05:43;;;;;;;1.60;0.70;;;19.20;99.90;;;;;;12467536;28;20365;-83
2022/07/13 01:11:46;;;;;;;1.70;1.20;;;19.40;99.90;;;;;;12459031;28;20084;-83
2022/07/13 01:17:48;;;;;;;2.30;1.35;;;19.50;99.90;;;;;;12451722;28;20323;-82
2022/07/13 01:23:51;;;;;;;2.50;1.60;;;19.50;99.90;;;;;;12436073;28;20398;-82
2022/07/13 01:29:53;;;;;;;3.13;1.40;;;19.40;99.90;;;;;;12432709;28;20125;-82
2022/07/13 01:35:55;;;;;;;3.35;1.33;;;19.40;99.90;;;;;;12454515;28;20119;-82
2022/07/13 01:41:57;;;;;;;3.33;1.40;;;19.20;99.90;;;;;;12472084;28;20524;-83
2022/07/13 01:47:59;;;;;;;1.83;1.13;;;19.10;99.90;;;;;;12454340;28;20485;-82
2022/07/13 01:54:01;;;;;;;2.08;1.00;;;19.20;99.90;;;;;;12457143;28;20049;-83
2022/07/13 02:00:11;;;;;;;2.15;1.33;;;19.20;99.90;;;;;;12455048;28;20053;-82
2022/07/13 02:06:12;;;;;;;3.78;1.50;;;19.40;99.90;;;;;;12443321;28;20536;-82
2022/07/13 02:12:15;;;;;;;2.45;1.42;;;19.40;99.90;;;;;;12472828;28;20128;-83
2022/07/13 02:18:18;;;;;;;2.85;1.30;;;19.20;99.90;;;;;;12479513;28;20435;-82
2022/07/13 02:24:19;;;;;;;3.67;1.40;;;19.20;99.90;;;;;;12447501;28;20037;-82
2022/07/13 02:30:21;;;;;;;3.53;1.30;;;19.20;99.90;;;;;;12454932;28;20049;-82
2022/07/13 02:36:29;;;;;;;1.58;0.90;;;19.10;99.90;;;;;;12463754;28;20050;-82
2022/07/13 02:42:32;;;;;;;2.00;1.00;;;19.10;99.90;;;;;;12468385;28;20114;-83
2022/07/13 02:48:34;;;;;;;2.13;0.77;;;19.30;99.90;;;;;;12446225;28;20041;-83
2022/07/13 02:54:36;;;;;;;1.75;0.95;;;19.40;99.90;;;;;;12475102;28;20049;-84
2022/07/13 03:00:38;;;;;;;1.45;1.00;;;19.70;99.90;;;;;;12457120;28;20105;-83
2022/07/13 03:06:39;;;;;;;2.40;0.85;;;20.00;99.90;;;;;;12478798;28;20057;-84
2022/07/13 03:12:42;;;;;;;3.60;0.88;;;20.10;99.90;;;;;;12470299;28;20061;-85
2022/07/13 03:18:43;;;;;;;3.03;1.10;;;20.30;99.90;;;;;;12487701;28;20721;-85
2022/07/13 03:24:45;;;;;;;2.40;0.90;;;20.30;99.90;;;;;;12461421;28;20045;-83
2022/07/13 03:30:47;;;;;;;2.78;1.17;;;20.40;99.90;;;;;;12460783;28;20046;-84
2022/07/13 03:36:49;;;;;;;6.70;1.40;;;20.40;99.90;;;;;;12448897;28;20119;-83
2022/07/13 03:42:51;;;;;;;1.77;1.05;;;20.50;99.90;;;;;;12462072;28;20132;-84
2022/07/13 03:48:53;;;;;;;3.15;1.27;;;20.40;99.90;;;;;;12437247;28;20045;-85
2022/07/13 03:54:55;;;;;;;3.53;1.17;;;20.40;99.90;;;;;;12454829;28;20041;-83
2022/07/13 04:00:58;;;;;;;2.55;1.10;;;20.40;99.90;;;;;;12454967;28;20045;-85
2022/07/13 04:07:00;;;;;;;2.00;1.20;;;20.40;99.90;;;;;;12440489;28;20048;-87
2022/07/13 04:13:02;;;;;;;2.70;1.10;;;20.40;99.90;;;;;;12471379;28;20075;-84
2022/07/13 04:19:11;;;;;;;3.38;1.40;;;20.40;99.90;;;;;;12441228;28;20603;-85
2022/07/13 04:25:13;;;;;;;2.55;1.48;;;20.40;99.90;;;;;;12455575;28;20081;-83
2022/07/13 04:31:15;;;;;;;2.25;1.50;;;20.40;99.90;;;;;;12475522;28;20046;-84
2022/07/13 04:37:17;;;;;;;8.30;2.17;;;20.30;99.90;;;;;;12447090;28;20841;-83
2022/07/13 04:43:19;;;;;;;3.83;1.80;;;20.40;99.90;;;;;;12455840;28;20090;-85
2022/07/13 04:49:20;;;;;;;4.57;1.80;;;20.50;99.90;;;;;;12468236;28;20168;-85
2022/07/13 04:55:23;;;;;;;3.15;1.70;;;20.50;99.90;;;;;;12449748;28;20046;-84
2022/07/13 05:01:24;;;;;;;3.20;1.48;;;20.50;99.90;;;;;;12447649;28;20505;-84
2022/07/13 05:07:28;;;;;;;4.50;1.73;;;20.60;99.90;;;;;;12450136;28;20045;-85
2022/07/13 05:13:30;;;;;;;2.43;1.50;;;20.60;99.90;;;;;;12446877;28;20387;-84
2022/07/13 05:19:33;;;;;;;4.47;1.80;;;20.60;99.90;;;;;;12466049;28;20110;-84
2022/07/13 05:25:35;;;;;;;4.68;1.75;;;20.60;99.90;;;;;;12433328;28;20037;-83
2022/07/13 05:31:37;;;;;;;6.13;2.05;;;20.60;99.90;;;;;;12462938;28;20049;-84
2022/07/13 05:37:39;;;;;;;5.10;2.00;;;20.70;99.90;;;;;;12427525;28;20120;-85
2022/07/13 05:43:41;;;;;;;3.03;1.90;;;20.80;99.90;;;;;;12406568;28;20050;-85
2022/07/13 05:49:42;;;;;;;4.57;2.10;;;20.70;99.90;;;;;;12420925;28;20594;-88
2022/07/13 05:55:44;;;;;;;4.10;1.75;;;20.90;99.90;;;;;;12419313;28;20490;-84
2022/07/13 06:01:46;;;;;;;3.10;1.80;;;20.90;99.90;;;;;;12426032;28;20050;-84
2022/07/13 06:07:48;;;;;;;4.07;1.40;;;21.00;99.90;;;;;;12434039;28;20394;-84
2022/07/13 06:13:50;;;;;;;10.02;1.70;;;21.00;99.90;;;;;;12403809;28;20411;-85
2022/07/13 06:19:51;;;;;;;5.65;1.65;;;21.10;99.90;;;;;;12405529;28;20050;-84
2022/07/13 06:25:54;;;;;;;4.70;1.50;;;21.10;99.90;;;;;;12409815;28;20065;-84
2022/07/13 06:31:55;;;;;;;3.97;1.30;;;21.10;99.90;;;;;;12413162;28;20053;-84
2022/07/13 06:37:58;;;;;;;5.63;1.80;;;21.20;99.90;;;;;;12425328;28;20141;-84
2022/07/13 06:44:00;;;;;;;3.53;1.58;;;21.30;99.90;;;;;;12431256;28;20773;-86
2022/07/13 06:50:01;;;;;;;2.97;1.15;;;21.50;99.90;;;;;;12436244;28;20092;-87
2022/07/13 06:56:03;;;;;;;4.15;1.25;;;21.60;99.90;;;;;;12416353;28;20061;-86
2022/07/13 07:02:06;;;;;;;5.28;1.27;;;21.70;99.90;;;;;;12408147;28;20045;-85
2022/07/13 07:08:08;;;;;;;2.03;1.20;;;21.90;99.90;;;;;;12434427;28;20045;-86
2022/07/13 07:14:10;;;;;;;4.53;1.10;;;22.00;99.90;;;;;;12428515;28;20537;-87
2022/07/13 07:20:12;;;;;;;3.17;1.20;;;22.30;99.90;;;;;;12408597;28;20185;-86
2022/07/13 07:26:15;;;;;;;4.33;1.50;;;22.50;99.90;;;;;;12430340;28;20045;-85
2022/07/13 07:32:16;;;;;;;4.20;1.20;;;22.70;99.90;;;;;;12419639;28;20100;-85
2022/07/13 07:38:18;;;;;;;2.65;1.35;;;22.80;99.90;;;;;;12417426;28;20058;-85
2022/07/13 07:44:20;;;;;;;6.32;1.40;;;22.90;99.90;;;;;;12411939;28;20783;-83
2022/07/13 07:50:28;;;;;;;2.90;1.20;;;23.10;99.90;;;;;;12434642;28;20041;-84
2022/07/13 07:56:30;;;;;;;2.67;1.10;;;23.20;99.90;;;;;;12435150;28;20131;-84
2022/07/13 08:02:32;;;;;;;3.85;1.35;;;23.20;99.90;;;;;;12425243;28;20133;-83
2022/07/13 08:08:34;;;;;;;3.55;1.02;;;23.30;99.90;;;;;;12422506;28;20053;-83
2022/07/13 08:14:47;;;;;;;2.83;1.30;;;23.50;99.90;;;;;;12427015;28;20035;-83
2022/07/13 08:20:49;;;;;;;5.50;1.35;;;23.60;99.90;;;;;;12452056;28;20046;-84
2022/07/13 08:26:52;;;;;;;3.03;1.40;;;23.70;99.90;;;;;;12416982;28;20109;-84
2022/07/13 08:32:54;;;;;;;1.98;1.20;;;23.90;99.90;;;;;;12426113;28;20183;-87
2022/07/13 08:38:56;;;;;;;4.80;1.47;;;24.00;99.90;;;;;;12481052;28;20073;-84
2022/07/13 08:44:58;;;;;;;5.32;1.52;;;24.30;99.90;;;;;;12445872;28;20050;-84
2022/07/13 08:51:00;;;;;;;8.13;1.67;;;24.60;99.90;;;;;;12446768;28;20051;-82
2022/07/13 08:57:02;;;;;;;4.82;1.38;;;25.00;99.90;;;;;;12457710;28;20054;-84
2022/07/13 09:03:04;;;;;;;4.85;1.48;;;25.50;99.90;;;;;;12448421;28;20053;-84
2022/07/13 09:09:07;;;;;;;3.83;1.30;;;25.60;99.90;;;;;;12486779;28;20049;-82
2022/07/13 09:15:09;;;;;;;4.38;1.30;;;25.70;99.90;;;;;;12438385;28;20107;-83
2022/07/13 09:21:11;;;;;;;3.13;1.60;;;25.10;99.90;;;;;;12480337;28;20143;-85
2022/07/13 09:27:16;;;;;;;3.13;1.63;;;25.00;99.90;;;;;;12478077;28;20087;-83
2022/07/13 09:33:32;;;;;;;7.25;1.52;;;25.00;99.90;;;;;;12452474;28;20050;-83
2022/07/13 09:39:34;;;;;;;3.42;1.30;;;25.20;99.90;;;;;;12462399;28;20049;-83
2022/07/13 09:52:02;;;;;;;6.72;1.60;;;25.50;99.90;;;;;;12476058;28;20563;-83
2022/07/13 09:58:06;;;;;;;3.85;1.50;;;25.90;99.90;;;;;;12455159;28;20083;-83
2022/07/13 10:04:12;;;;;;;8.38;1.70;;;25.80;99.90;;;;;;12463753;28;20518;-84
2022/07/13 10:10:36;;;;;;;2.70;1.35;;;25.80;99.90;;;;;;12469274;28;20041;-83
2022/07/13 10:16:38;;;;;;;3.60;1.50;;;26.20;99.90;;;;;;12473546;28;20113;-82
2022/07/13 10:22:48;;;;;;;4.30;1.40;;;26.50;99.90;;;;;;12480352;28;20038;-83
2022/07/13 10:29:07;;;;;;;4.38;1.50;;;26.50;99.90;;;;;;12491641;28;20299;-85
2022/07/13 10:35:13;;;;;;;5.70;1.48;;;26.70;99.90;;;;;;12489220;28;20081;-83
2022/07/13 10:41:23;;;;;;;3.45;1.50;;;27.20;99.90;;;;;;12471438;28;20520;-83
2022/07/13 10:47:44;;;;;;;5.35;1.77;;;27.70;99.90;;;;;;12453853;28;20103;-83
2022/07/13 10:53:52;;;;;;;5.53;1.40;;;27.80;99.90;;;;;;12455246;28;20069;-89
2022/07/13 11:00:00;;;;;;;4.90;1.20;;;28.10;99.90;;;;;;12466583;28;20041;-87
2022/07/13 11:06:13;;;;;;;5.57;1.70;;;27.70;99.90;;;;;;12472489;28;20592;-88
2022/07/13 11:12:21;;;;;;;4.68;1.20;;;28.30;99.90;;;;;;12488140;28;20128;-89
2022/07/13 11:18:27;;;;;;;4.43;1.13;;;28.90;99.90;;;;;;12455190;28;20061;-88
2022/07/13 11:30:55;;;;;;;5.65;1.30;;;28.80;99.90;;;;;;12485074;28;20120;-87
2022/07/13 11:36:58;;;;;;;;;;;28.70;99.90;;;;;;12461867;28;20188;-87
2022/07/13 11:43:01;;;;;;;7.05;2.08;;;28.80;99.90;;;;;;12482640;28;19959;-89
2022/07/13 11:49:05;;;;;;;6.13;1.77;;;28.90;99.90;;;;;;12461600;28;20045;-89
2022/07/13 11:55:08;;;;;;;7.07;1.50;;;28.80;99.90;;;;;;12463857;28;20068;-87
2022/07/13 12:01:12;;;;;;;8.48;1.40;;;28.70;99.90;;;;;;12450293;28;20126;-89
2022/07/13 12:07:25;;;;;;;3.53;1.20;;;28.50;99.90;;;;;;12465669;28;20509;-88
2022/07/13 12:13:29;;;;;;;3.20;1.50;;;28.10;99.90;;;;;;12482059;28;20080;-89
2022/07/13 12:19:31;;;;;;;5.50;1.30;;;27.70;99.90;;;;;;12458378;28;20061;-87
2022/07/13 12:25:39;;;;;;;4.60;1.20;;;27.80;99.90;;;;;;12486933;28;20037;-88
2022/07/13 12:31:49;;;;;;;6.38;1.20;;;28.20;99.90;;;;;;12481955;28;20568;-89
2022/07/13 12:37:52;;;;;;;5.15;1.40;;;27.70;99.90;;;;;;12460140;28;20053;-90
2022/07/13 12:43:56;;;;;;;;;;;27.50;99.90;;;;;;12478919;28;20045;-89
2022/07/13 12:49:58;;;;;;;4.20;1.50;;;27.70;99.90;;;;;;12475046;28;20347;-89
2022/07/13 12:56:02;;;;;;;3.45;1.30;;;28.30;99.90;;;;;;12457772;28;20056;-89
2022/07/13 13:02:04;;;;;;;3.28;1.52;;;28.10;99.90;;;;;;12481640;28;20506;-89
2022/07/13 13:08:06;;;;;;;3.08;1.13;;;28.40;99.90;;;;;;12474497;28;20057;-89
2022/07/13 13:14:09;;;;;;;8.02;1.27;;;28.30;99.90;;;;;;12527982;28;20033;-90
2022/07/13 13:20:11;;;;;;;3.65;1.70;;;28.20;99.90;;;;;;12477211;28;20123;-89
2022/07/13 13:26:14;;;;;;;3.67;1.77;;;27.80;99.90;;;;;;12492473;28;20057;-90
2022/07/13 13:32:31;;;;;;;4.03;1.75;;;27.60;99.90;;;;;;12479767;28;20049;-89
2022/07/13 13:38:33;;;;;;;3.60;1.70;;;27.40;99.90;;;;;;12477540;28;20091;-89
2022/07/13 13:44:35;;;;;;;19.90;2.73;;;27.20;99.90;;;;;;12484723;28;20128;-88
2022/07/13 13:50:37;;;;;;;7.30;1.73;;;27.10;99.90;;;;;;12471785;28;20045;-87
2022/07/13 13:56:39;;;;;;;3.00;2.10;;;27.50;99.90;;;;;;12488635;28;20044;-87
2022/07/13 14:02:41;;;;;;;5.80;2.40;;;27.80;99.90;;;;;;12492699;28;20128;-87
2022/07/13 14:08:43;;;;;;;3.60;2.30;;;27.80;99.90;;;;;;12463123;28;20104;-88
2022/07/13 14:14:45;;;;;;;5.63;2.37;;;27.60;99.90;;;;;;12480849;28;20042;-89
2022/07/13 14:20:53;;;;;;;6.80;2.47;;;27.60;99.90;;;;;;12478518;28;20038;-90
2022/07/13 14:26:54;;;;;;;;;;;28.00;99.90;;;;;;12486251;28;20088;-88
2022/07/13 14:33:04;;;;;;;5.90;2.60;;;27.90;99.90;;;;;;12447623;28;20320;-87
2022/07/13 14:39:06;;;;;;;4.30;2.60;;;27.90;99.90;;;;;;12463330;28;20054;-87
2022/07/13 14:45:08;;;;;;;7.77;3.00;;;27.80;99.90;;;;;;12454198;28;20524;-86
2022/07/13 14:51:10;;;;;;;6.50;2.43;;;27.90;99.90;;;;;;12478727;28;20489;-88
2022/07/13 14:57:13;;;;;;;7.10;3.10;;;28.00;99.90;;;;;;12488634;28;20058;-87
2022/07/13 15:03:15;;;;;;;4.30;2.50;;;28.00;99.90;;;;;;12485490;28;20065;-87
2022/07/13 15:09:18;;;;;;;5.63;2.58;;;28.40;99.90;;;;;;12471697;28;20049;-87
2022/07/13 15:15:40;;;;;;;5.78;2.47;;;28.40;99.90;;;;;;12481954;28;20041;-87
2022/07/13 15:21:42;;;;;;;4.70;2.27;;;28.00;99.90;;;;;;12442971;28;20049;-87
2022/07/13 15:27:44;;;;;;;5.35;2.65;;;27.60;99.90;;;;;;12464457;28;20865;-86
2022/07/13 15:33:46;;;;;;;4.47;2.40;;;27.70;99.90;;;;;;12489559;28;20042;-86
2022/07/13 15:39:48;;;;;;;8.23;2.53;;;28.10;99.90;;;;;;12474380;28;20556;-87
2022/07/13 15:45:50;;;;;;;5.20;2.30;;;28.20;99.90;;;;;;12484077;28;20077;-86
2022/07/13 15:51:52;;;;;;;4.25;2.15;;;28.60;99.90;;;;;;12476549;28;20064;-85
2022/07/13 15:57:54;;;;;;;;;;;28.50;99.90;;;;;;12464907;28;20088;-87
2022/07/13 16:03:56;;;;;;;3.38;1.77;;;28.10;99.90;;;;;;12457178;28;19925;-88
2022/07/13 16:09:58;;;;;;;2.78;1.70;;;28.20;99.90;;;;;;12462801;28;20046;-87
2022/07/13 16:16:00;;;;;;;3.27;1.30;;;27.90;99.90;;;;;;12449381;28;20049;-87
2022/07/13 16:22:02;;;;;;;4.82;1.60;;;27.40;99.90;;;;;;12463794;28;20054;-88
2022/07/13 16:28:04;;;;;;;3.47;1.20;;;27.20;99.90;;;;;;12453519;28;20413;-85
2022/07/13 16:34:06;;;;;;;4.35;1.42;;;27.40;99.90;;;;;;12472022;28;20092;-86
2022/07/13 16:40:09;;;;;;;3.72;1.33;;;27.40;99.90;;;;;;12458211;28;20064;-87
2022/07/13 16:46:10;;;;;;;2.00;1.17;;;27.50;99.90;;;;;;12448700;28;20107;-88
2022/07/13 16:52:15;;;;;;;3.83;1.20;;;27.90;99.90;;;;;;12448260;28;20505;-88
2022/07/13 16:58:17;;;;;;;4.13;1.50;;;27.90;99.90;;;;;;12472278;28;20136;-88
2022/07/13 17:04:19;;;;;;;5.83;1.30;;;27.80;99.90;;;;;;12462891;28;20140;-85
2022/07/13 17:10:22;;;;;;;2.97;1.60;;;27.60;99.90;;;;;;12461143;28;20387;-88
2022/07/13 17:16:23;;;;;;;6.47;1.70;;;27.40;99.90;;;;;;12459567;28;20057;-88
2022/07/13 17:22:25;;;;;;;7.27;1.70;;;27.20;99.90;;;;;;12458719;28;20103;-88
2022/07/13 17:28:27;;;;;;;4.23;1.90;;;27.10;99.90;;;;;;12462963;28;20049;-86
2022/07/13 17:34:29;;;;;;;3.87;1.60;;;26.80;99.90;;;;;;12487556;28;20053;-87
2022/07/13 17:40:31;;;;;;;5.20;1.70;;;26.90;99.90;;;;;;12485597;28;20472;-87
2022/07/13 17:46:33;;;;;;;2.83;1.50;;;26.70;99.90;;;;;;12473234;28;20046;-87
2022/07/13 17:52:53;;;;;;;4.18;1.60;;;26.20;99.90;;;;;;12450831;28;20038;-88
2022/07/13 17:58:55;;;;;;;3.55;1.70;;;25.90;99.90;;;;;;12467882;28;20163;-87
2022/07/13 18:04:58;;;;;;;4.70;1.88;;;25.50;99.90;;;;;;12465053;28;21492;-89
2022/07/13 18:11:00;;;;;;;5.13;1.80;;;25.30;99.90;;;;;;12484006;28;20045;-88
2022/07/13 18:17:02;;;;;;;5.20;1.85;;;25.10;99.90;;;;;;12483437;28;20180;-87
2022/07/13 18:29:24;;;;;;;5.20;1.40;;;24.60;99.90;;;;;;12458007;28;20124;-87
2022/07/13 18:35:26;;;;;;;4.40;1.52;;;24.50;99.90;;;;;;12466351;28;20149;-87
2022/07/13 18:41:28;;;;;;;3.92;1.58;;;24.50;99.90;;;;;;12466642;28;20042;-88
2022/07/13 18:47:29;;;;;;;6.57;1.70;;;24.40;99.90;;;;;;12459260;28;20049;-87
2022/07/13 18:53:31;;;;;;;9.15;1.60;;;24.20;99.90;;;;;;12454168;28;20167;-88
2022/07/13 18:59:33;;;;;;;3.47;1.50;;;24.10;99.90;;;;;;12452154;28;20054;-88
2022/07/13 19:05:37;;;;;;;4.40;1.60;;;24.00;99.90;;;;;;12460246;28;20075;-87
2022/07/13 19:11:39;;;;;;;3.88;1.60;;;23.90;99.90;;;;;;12474574;28;20541;-88
2022/07/13 19:17:42;;;;;;;4.35;2.22;;;23.80;99.90;;;;;;12448407;28;20057;-89
2022/07/13 19:23:44;;;;;;;8.20;1.90;;;23.70;99.90;;;;;;12452168;28;20474;-87
2022/07/13 19:29:47;;;;;;;;;;;23.70;99.90;;;;;;12472678;28;20050;-87
2022/07/13 19:35:49;;;;;;;5.88;1.60;;;23.40;99.90;;;;;;12473689;28;19921;-88
2022/07/13 19:41:51;;;;;;;4.28;1.80;;;23.30;99.90;;;;;;12474663;28;20168;-87
2022/07/13 19:47:53;;;;;;;4.87;1.60;;;23.10;99.90;;;;;;12478311;28;20191;-88
2022/07/13 19:53:55;;;;;;;3.75;1.80;;;23.10;99.90;;;;;;12486440;28;20128;-89
2022/07/13 19:59:56;;;;;;;4.40;1.60;;;23.00;99.90;;;;;;12483237;28;20087;-88
2022/07/13 20:05:59;;;;;;;2.83;1.38;;;22.80;99.90;;;;;;12466731;28;20108;-87
2022/07/13 20:12:02;;;;;;;3.80;1.88;;;22.60;99.90;;;;;;12463939;28;20049;-88
2022/07/13 20:18:03;;;;;;;5.40;1.80;;;22.60;99.90;;;;;;12467306;28;20140;-87
2022/07/13 20:24:06;;;;;;;4.88;1.90;;;22.40;99.90;;;;;;12478579;28;20049;-86
2022/07/13 20:30:08;;;;;;;5.90;1.95;;;22.00;99.90;;;;;;12465706;28;20490;-85
2022/07/13 20:36:10;;;;;;;3.22;1.98;;;21.90;99.90;;;;;;12451086;28;20149;-87
2022/07/13 20:42:11;;;;;;;7.70;1.98;;;21.90;99.90;;;;;;12458819;28;20149;-87
2022/07/13 20:48:13;;;;;;;3.72;1.77;;;21.80;99.90;;;;;;12473156;28;20049;-87
2022/07/13 20:54:15;;;;;;;5.47;1.73;;;21.80;99.90;;;;;;12466048;28;20382;-87
2022/07/13 21:00:17;;;;;;;4.88;1.75;;;21.60;99.90;;;;;;12470011;28;20139;-87
2022/07/13 21:06:19;;;;;;;7.40;2.00;;;21.70;99.90;;;;;;12456592;28;20042;-87
2022/07/13 21:12:21;;;;;;;4.05;1.92;;;21.70;99.90;;;;;;12462428;28;20049;-87
2022/07/13 21:18:22;;;;;;;6.07;1.98;;;21.70;99.90;;;;;;12481585;28;20091;-87
2022/07/13 21:24:24;;;;;;;4.53;1.77;;;21.40;99.90;;;;;;12470705;28;20395;-87
2022/07/13 21:30:26;;;;;;;5.95;1.80;;;21.30;99.90;;;;;;12471394;28;20052;-87
2022/07/13 21:36:29;;;;;;;7.20;2.03;;;21.40;99.90;;;;;;12469985;28;20103;-87
2022/07/13 21:42:31;;;;;;;10.20;2.30;;;21.30;99.90;;;;;;12472390;28;20540;-87
2022/07/13 21:48:32;;;;;;;8.57;2.20;;;21.00;99.90;;;;;;12465179;28;20080;-87
2022/07/13 21:54:35;;;;;;;9.40;2.38;;;20.80;99.90;;;;;;12471658;28;20050;-86
2022/07/13 22:00:36;;;;;;;6.10;1.75;;;20.80;99.90;;;;;;12470352;28;20041;-87
2022/07/13 22:06:41;;;;;;;12.07;2.20;;;20.60;99.90;;;;;;12484931;28;20478;-87
2022/07/13 22:13:21;;;;;;;11.73;2.70;;;20.60;99.90;;;;;;12464704;28;20128;-86
2022/07/13 22:20:00;;;;;;;11.70;2.20;;;20.50;99.90;;;;;;12460290;28;20119;-86
2022/07/13 22:26:39;;;;;;;8.95;2.38;;;20.30;99.90;;;;;;12443382;28;20459;-86
2022/07/13 22:33:18;;;;;;;9.82;3.10;;;20.20;99.90;;;;;;12476174;28;20555;-86
2022/07/13 22:40:00;;;;;;;9.10;2.40;;;20.00;99.90;;;;;;12467784;28;20038;-87
2022/07/13 22:46:39;;;;;;;11.95;2.65;;;19.90;99.90;;;;;;12453783;28;20187;-86
2022/07/13 22:53:19;;;;;;;12.23;2.55;;;19.70;99.90;;;;;;12471153;28;20076;-86
2022/07/13 22:59:58;;;;;;;16.40;3.08;;;19.50;99.90;;;;;;12471369;28;20152;-86
2022/07/13 23:06:37;;;;;;;16.25;2.88;;;19.30;99.90;;;;;;12471385;28;20110;-86
2022/07/13 23:13:16;;;;;;;14.48;3.03;;;19.20;99.90;;;;;;12458878;28;20774;-86
2022/07/13 23:19:56;;;;;;;11.50;2.42;;;18.80;99.90;;;;;;12494050;28;20057;-86
2022/07/13 23:26:35;;;;;;;12.43;2.70;;;18.90;99.90;;;;;;12464350;28;20167;-86
2022/07/13 23:32:38;;;;;;;16.02;2.90;;;18.90;99.90;;;;;;12465046;28;20130;-86
2022/07/13 23:38:42;;;;;;;24.15;3.40;;;18.80;99.90;;;;;;12478929;28;20045;-85
2022/07/13 23:44:44;;;;;;;14.07;2.63;;;18.50;99.90;;;;;;12459867;28;20061;-86
2022/07/13 23:50:46;;;;;;;17.67;3.28;;;18.50;99.90;;;;;;12455844;28;20113;-86
2022/07/13 23:56:48;;;;;;;16.90;3.25;;;18.50;99.90;;;;;;12460129;28;20049;-86
